Time;durP1;ratioP1;P1;durP2;ratioP2;P2;SDS_P1;SDS_P2;PMS_P1;PMS_P2;Temp;Humidity;BMP_temperature;BMP_pressure;BME280_temperature;BME280_humidity;BME280_pressure;Samples;Min_cycle;Max_cycle;Signal;HPM_P1;HPM_P2
2021/01/22 00:00:16;;;;;;;1.30;0.70;;;20.50;52.30;;;;;;4984267;28;20046;-46
2021/01/22 00:02:42;;;;;;;1.13;0.50;;;20.50;52.20;;;;;;4953530;29;20042;-47
2021/01/22 00:05:08;;;;;;;1.45;0.63;;;20.50;52.20;;;;;;4953955;29;20027;-46
2021/01/22 00:07:33;;;;;;;1.00;0.60;;;20.50;52.10;;;;;;4954010;28;20073;-49
2021/01/22 00:09:59;;;;;;;1.67;0.80;;;20.50;52.10;;;;;;4953180;29;20054;-48
2021/01/22 00:12:25;;;;;;;2.42;0.70;;;20.50;52.00;;;;;;4952940;29;20519;-52
2021/01/22 00:14:50;;;;;;;2.65;0.65;;;20.50;51.90;;;;;;4953427;29;20555;-47
2021/01/22 00:17:16;;;;;;;1.08;0.50;;;20.50;51.80;;;;;;4952925;29;20039;-49
2021/01/22 00:19:44;;;;;;;1.42;0.60;;;20.50;51.80;;;;;;4954284;29;20358;-49
2021/01/22 00:22:10;;;;;;;1.38;0.68;;;20.50;51.80;;;;;;4953194;29;20464;-51
2021/01/22 00:24:35;;;;;;;0.75;0.40;;;20.50;51.80;;;;;;4953461;29;20058;-48
2021/01/22 00:27:01;;;;;;;0.95;0.47;;;20.50;51.70;;;;;;4953005;29;20044;-50
2021/01/22 00:29:27;;;;;;;0.73;0.60;;;20.50;51.70;;;;;;4952012;28;20069;-50
2021/01/22 00:31:52;;;;;;;1.13;0.40;;;20.50;51.70;;;;;;4945974;29;20137;-50
2021/01/22 00:34:21;;;;;;;0.40;0.38;;;20.50;51.60;;;;;;4953272;29;20031;-46
2021/01/22 00:36:46;;;;;;;0.73;0.50;;;20.50;51.60;;;;;;4953418;28;20031;-49
2021/01/22 00:39:12;;;;;;;0.70;0.50;;;20.50;51.50;;;;;;4953220;29;20111;-45
2021/01/22 00:41:37;;;;;;;1.58;0.50;;;20.50;51.50;;;;;;4953582;28;20031;-46
2021/01/22 00:44:03;;;;;;;2.45;0.65;;;20.50;51.50;;;;;;4951421;29;20039;-46
2021/01/22 00:46:29;;;;;;;1.45;0.70;;;20.50;51.60;;;;;;4952246;29;20039;-45
2021/01/22 00:48:55;;;;;;;1.10;0.68;;;20.50;51.40;;;;;;4952461;29;20036;-48
2021/01/22 00:51:20;;;;;;;1.20;0.52;;;20.50;51.50;;;;;;4953000;29;20116;-46
2021/01/22 00:53:46;;;;;;;1.17;0.57;;;20.50;51.40;;;;;;4953281;29;20027;-46
2021/01/22 00:56:11;;;;;;;0.88;0.60;;;20.50;51.30;;;;;;4952621;29;20071;-48
2021/01/22 00:58:40;;;;;;;0.82;0.60;;;20.50;51.20;;;;;;4953290;29;20028;-47
2021/01/22 01:01:06;;;;;;;0.98;0.57;;;20.50;51.20;;;;;;4953361;29;20366;-46
2021/01/22 01:03:33;;;;;;;2.15;0.70;;;20.50;51.20;;;;;;4953509;29;20041;-46
2021/01/22 01:05:59;;;;;;;0.70;0.40;;;20.50;51.10;;;;;;4952059;28;20381;-48
2021/01/22 01:08:24;;;;;;;0.57;0.40;;;20.50;51.10;;;;;;4953168;29;20027;-46
2021/01/22 01:10:50;;;;;;;0.63;0.43;;;20.50;51.10;;;;;;4953641;29;20035;-46
2021/01/22 01:13:18;;;;;;;1.75;0.40;;;20.50;51.00;;;;;;4952197;29;20133;-46
2021/01/22 01:15:44;;;;;;;3.42;1.67;;;20.50;51.00;;;;;;4952950;29;20110;-46
2021/01/22 01:18:10;;;;;;;0.35;0.28;;;20.50;51.00;;;;;;4952439;29;20115;-45
2021/01/22 01:20:35;;;;;;;1.83;0.50;;;20.50;51.00;;;;;;4952808;28;20090;-47
2021/01/22 01:23:01;;;;;;;1.10;0.60;;;20.50;50.90;;;;;;4952603;29;20480;-46
2021/01/22 01:25:27;;;;;;;1.73;0.57;;;20.50;50.80;;;;;;4952922;29;20054;-47
2021/01/22 01:27:55;;;;;;;0.75;0.60;;;20.50;50.80;;;;;;4952729;29;20102;-51
2021/01/22 01:30:21;;;;;;;0.65;0.40;;;20.50;50.80;;;;;;4953110;29;20518;-46
2021/01/22 01:32:46;;;;;;;1.13;0.70;;;20.50;50.70;;;;;;4953180;29;20064;-51
2021/01/22 01:35:12;;;;;;;0.93;0.40;;;20.50;50.60;;;;;;4944547;28;20875;-47
2021/01/22 01:37:38;;;;;;;1.73;0.60;;;20.50;50.60;;;;;;4952990;29;20019;-46
2021/01/22 01:40:05;;;;;;;0.55;0.40;;;20.50;50.50;;;;;;4951995;29;20082;-45
2021/01/22 01:42:30;;;;;;;0.30;0.30;;;20.50;50.50;;;;;;4952790;28;20106;-47
2021/01/22 01:44:56;;;;;;;2.05;0.50;;;20.50;50.40;;;;;;4952297;29;20169;-49
2021/01/22 01:47:21;;;;;;;0.75;0.50;;;20.50;50.40;;;;;;4944535;29;20139;-46
2021/01/22 01:49:47;;;;;;;0.75;0.45;;;20.50;50.30;;;;;;4952492;28;20042;-47
2021/01/22 01:52:13;;;;;;;1.13;0.50;;;20.50;50.40;;;;;;4952171;29;20170;-46
2021/01/22 01:54:41;;;;;;;1.45;0.50;;;20.50;50.30;;;;;;4954243;28;20472;-46
2021/01/22 01:57:07;;;;;;;0.82;0.40;;;20.50;50.20;;;;;;4954938;29;20110;-47
2021/01/22 01:59:33;;;;;;;1.13;0.50;;;20.50;50.30;;;;;;4956307;29;20106;-48
2021/01/22 02:01:58;;;;;;;0.40;0.30;;;20.50;50.20;;;;;;4955529;28;20158;-46
2021/01/22 02:04:24;;;;;;;0.43;0.40;;;20.50;50.10;;;;;;4956584;28;20491;-46
2021/01/22 02:06:50;;;;;;;1.75;0.80;;;20.50;50.10;;;;;;4956293;29;20548;-48
2021/01/22 02:09:17;;;;;;;1.58;0.50;;;20.60;50.10;;;;;;4955518;28;20075;-48
2021/01/22 02:11:43;;;;;;;0.68;0.40;;;20.50;50.00;;;;;;4956199;28;20114;-46
2021/01/22 02:14:09;;;;;;;1.50;0.40;;;20.50;49.90;;;;;;4954727;28;20365;-49
2021/01/22 02:16:35;;;;;;;0.85;0.50;;;20.50;49.80;;;;;;4956074;29;20035;-47
2021/01/22 02:19:05;;;;;;;0.65;0.43;;;20.60;49.90;;;;;;4955918;28;20400;-46
2021/01/22 02:21:34;;;;;;;1.25;0.50;;;20.50;49.80;;;;;;4953109;28;20043;-47
2021/01/22 02:24:12;;;;;;;0.63;0.43;;;20.60;49.80;;;;;;4975349;28;20039;-49
2021/01/22 02:26:45;;;;;;;0.60;0.43;;;20.50;49.60;;;;;;4948604;29;20050;-49
2021/01/22 02:29:13;;;;;;;1.02;0.50;;;20.50;49.70;;;;;;4955206;29;20031;-47
2021/01/22 02:31:44;;;;;;;1.45;0.50;;;20.50;49.60;;;;;;4955379;28;21601;-45
2021/01/22 02:34:11;;;;;;;0.50;0.40;;;20.50;49.60;;;;;;4955002;28;20432;-49
2021/01/22 02:36:40;;;;;;;1.75;0.40;;;20.50;49.60;;;;;;4955926;28;20126;-47
2021/01/22 02:39:09;;;;;;;1.40;0.50;;;20.50;49.40;;;;;;4954954;28;20061;-50
2021/01/22 02:41:37;;;;;;;1.77;0.40;;;20.60;49.40;;;;;;4954770;29;20055;-49
2021/01/22 02:44:04;;;;;;;1.88;0.32;;;20.60;49.40;;;;;;4950598;28;20055;-49
2021/01/22 02:46:31;;;;;;;0.73;0.38;;;20.60;49.40;;;;;;4955022;28;20034;-49
2021/01/22 02:48:58;;;;;;;0.65;0.50;;;20.60;49.30;;;;;;4953479;28;20086;-46
2021/01/22 02:51:24;;;;;;;0.90;0.30;;;20.60;49.30;;;;;;4955473;28;20070;-46
2021/01/22 02:53:49;;;;;;;0.57;0.30;;;20.60;49.30;;;;;;4948046;29;20393;-53
2021/01/22 02:56:52;;;;;;;0.77;0.60;;;20.60;49.20;;;;;;4954739;29;20108;-49
2021/01/22 02:59:52;;;;;;;0.73;0.40;;;20.60;49.10;;;;;;4954583;29;20039;-48
2021/01/22 03:02:27;;;;;;;2.25;0.85;;;20.60;49.10;;;;;;4954377;28;20532;-49
2021/01/22 03:04:54;;;;;;;0.73;0.40;;;20.60;49.00;;;;;;4954934;28;20055;-47
2021/01/22 03:07:28;;;;;;;0.55;0.38;;;20.60;49.00;;;;;;4954790;28;20524;-47
2021/01/22 03:09:58;;;;;;;1.27;0.63;;;20.60;48.90;;;;;;4954460;28;20041;-49
2021/01/22 03:12:26;;;;;;;0.52;0.40;;;20.60;49.00;;;;;;4949874;28;20036;-46
2021/01/22 03:14:53;;;;;;;0.73;0.47;;;20.60;48.90;;;;;;4953192;29;20054;-46
2021/01/22 03:17:18;;;;;;;0.90;0.50;;;20.50;48.80;;;;;;4954396;28;20109;-45
2021/01/22 03:19:46;;;;;;;0.75;0.50;;;20.60;48.80;;;;;;4954660;28;20054;-46
2021/01/22 03:22:12;;;;;;;0.35;0.30;;;20.60;48.80;;;;;;4954449;28;20066;-45
2021/01/22 03:24:38;;;;;;;0.98;0.50;;;20.60;48.70;;;;;;4953747;29;20062;-50
2021/01/22 03:27:04;;;;;;;0.50;0.30;;;20.60;48.70;;;;;;4952330;29;20035;-45
2021/01/22 03:29:29;;;;;;;0.40;0.30;;;20.50;48.60;;;;;;4954912;28;20063;-50
2021/01/22 03:31:57;;;;;;;1.77;0.40;;;20.60;48.70;;;;;;4949014;29;20032;-50
2021/01/22 03:34:26;;;;;;;1.00;0.40;;;20.60;49.20;;;;;;4952156;29;20046;-45
2021/01/22 03:36:52;;;;;;;2.05;0.50;;;20.60;48.60;;;;;;4953717;29;20042;-46
2021/01/22 03:39:18;;;;;;;0.50;0.40;;;20.60;48.50;;;;;;4954416;28;20031;-45
2021/01/22 03:41:44;;;;;;;1.02;0.43;;;20.60;48.50;;;;;;4954367;28;20490;-45
2021/01/22 03:44:09;;;;;;;1.75;0.50;;;20.60;48.40;;;;;;4953027;29;20377;-46
2021/01/22 03:46:35;;;;;;;0.85;0.50;;;20.60;48.40;;;;;;4954412;29;20027;-46
2021/01/22 03:49:00;;;;;;;1.33;0.90;;;20.60;48.30;;;;;;4954718;28;20042;-45
2021/01/22 03:51:26;;;;;;;1.23;0.50;;;20.60;48.30;;;;;;4954553;29;20035;-46
2021/01/22 03:53:54;;;;;;;0.55;0.32;;;20.60;48.30;;;;;;4954440;29;20038;-48
2021/01/22 03:56:19;;;;;;;1.13;0.47;;;20.60;48.30;;;;;;4953682;29;20039;-45
2021/01/22 03:58:45;;;;;;;0.63;0.40;;;20.60;48.20;;;;;;4953448;29;20028;-46
2021/01/22 04:01:10;;;;;;;0.93;0.50;;;20.60;48.10;;;;;;4952608;29;20031;-47
2021/01/22 04:03:36;;;;;;;1.55;0.40;;;20.60;48.10;;;;;;4952895;29;20465;-47
2021/01/22 04:06:02;;;;;;;1.70;0.55;;;20.60;48.00;;;;;;4953448;29;20038;-48
2021/01/22 04:08:28;;;;;;;1.45;0.43;;;20.60;48.00;;;;;;4954591;29;20122;-46
2021/01/22 04:10:53;;;;;;;1.27;0.47;;;20.60;48.20;;;;;;4952809;29;20520;-47
2021/01/22 04:13:19;;;;;;;1.75;0.50;;;20.60;47.90;;;;;;4953833;29;20034;-46
2021/01/22 04:15:45;;;;;;;0.55;0.35;;;20.60;47.90;;;;;;4953547;29;20469;-46
2021/01/22 04:18:10;;;;;;;0.93;0.40;;;20.60;47.90;;;;;;4952836;28;20038;-49
2021/01/22 04:20:36;;;;;;;0.60;0.40;;;20.60;47.80;;;;;;4953879;29;20046;-48
2021/01/22 04:23:02;;;;;;;1.77;0.40;;;20.60;47.80;;;;;;4953067;28;20039;-48
2021/01/22 04:25:27;;;;;;;0.77;0.50;;;20.60;47.70;;;;;;4953829;28;20047;-46
2021/01/22 04:27:56;;;;;;;1.50;0.55;;;20.60;47.70;;;;;;4954157;29;20031;-51
2021/01/22 04:30:22;;;;;;;0.70;0.50;;;20.60;47.60;;;;;;4953409;28;20027;-50
2021/01/22 04:32:47;;;;;;;2.47;0.43;;;20.60;47.70;;;;;;4954233;28;20050;-47
2021/01/22 04:35:16;;;;;;;0.88;0.40;;;20.60;47.60;;;;;;4952681;29;20106;-46
2021/01/22 04:37:42;;;;;;;0.70;0.45;;;20.60;47.50;;;;;;4953762;28;20031;-47
2021/01/22 04:40:11;;;;;;;1.05;0.50;;;20.60;47.50;;;;;;4951426;29;20031;-45
2021/01/22 04:42:42;;;;;;;1.05;0.40;;;20.60;47.50;;;;;;4953027;28;20043;-47
2021/01/22 04:45:12;;;;;;;2.25;1.15;;;20.60;47.40;;;;;;4951804;29;20074;-49
2021/01/22 04:47:40;;;;;;;1.13;0.50;;;20.60;47.40;;;;;;4953066;28;20039;-46
2021/01/22 04:50:07;;;;;;;0.50;0.40;;;20.60;47.40;;;;;;4953039;28;20042;-46
2021/01/22 04:52:36;;;;;;;1.25;0.50;;;20.60;47.30;;;;;;4953168;28;20019;-47
2021/01/22 04:55:05;;;;;;;1.13;0.50;;;20.60;47.30;;;;;;4953185;28;20051;-46
2021/01/22 04:57:33;;;;;;;0.68;0.43;;;20.60;47.30;;;;;;4953376;28;20031;-48
2021/01/22 05:00:00;;;;;;;0.95;0.40;;;20.60;47.20;;;;;;4952570;28;20039;-47
2021/01/22 05:02:26;;;;;;;1.65;0.40;;;20.60;47.20;;;;;;4952892;28;20090;-47
2021/01/22 05:04:52;;;;;;;1.30;0.50;;;20.60;47.10;;;;;;4951790;29;20424;-46
2021/01/22 05:07:21;;;;;;;0.85;0.50;;;20.60;47.10;;;;;;4952191;29;20035;-45
2021/01/22 05:09:47;;;;;;;2.45;0.60;;;20.60;47.00;;;;;;4953520;28;20031;-49
2021/01/22 05:12:13;;;;;;;0.40;0.40;;;20.70;47.10;;;;;;4979069;28;20035;-47
2021/01/22 05:14:39;;;;;;;0.90;0.40;;;20.60;47.00;;;;;;4952886;28;20038;-46
2021/01/22 05:17:07;;;;;;;0.88;0.73;;;20.60;46.90;;;;;;4947822;29;20441;-45
2021/01/22 05:19:34;;;;;;;2.00;0.40;;;20.60;46.90;;;;;;4950550;29;20472;-46
2021/01/22 05:22:01;;;;;;;1.13;0.50;;;20.60;46.90;;;;;;4943849;29;20389;-45
2021/01/22 05:24:29;;;;;;;0.60;0.50;;;20.60;46.80;;;;;;4945748;28;20031;-47
2021/01/22 05:27:06;;;;;;;0.50;0.32;;;20.60;46.80;;;;;;4952100;28;20051;-49
2021/01/22 05:29:33;;;;;;;0.93;0.30;;;20.60;46.80;;;;;;4957099;28;20023;-46
2021/01/22 05:31:59;;;;;;;1.35;0.50;;;20.60;46.80;;;;;;4958856;28;20055;-46
2021/01/22 05:34:44;;;;;;;0.47;0.47;;;20.60;46.70;;;;;;4958464;28;20078;-47
2021/01/22 05:37:10;;;;;;;2.33;0.40;;;20.60;46.70;;;;;;4958242;28;20046;-45
2021/01/22 05:39:35;;;;;;;0.43;0.25;;;20.60;46.70;;;;;;4959574;28;20031;-45
2021/01/22 05:42:01;;;;;;;0.55;0.40;;;20.60;46.70;;;;;;4958103;28;20035;-46
2021/01/22 05:44:27;;;;;;;1.10;0.40;;;20.60;46.70;;;;;;4959800;28;20081;-47
2021/01/22 05:47:10;;;;;;;0.60;0.50;;;20.60;46.60;;;;;;4958737;28;20401;-48
2021/01/22 05:50:00;;;;;;;1.60;0.57;;;20.60;46.60;;;;;;4958557;28;20027;-46
2021/01/22 05:52:26;;;;;;;2.50;0.63;;;20.60;46.60;;;;;;4956419;29;20043;-46
2021/01/22 05:54:52;;;;;;;0.50;0.30;;;20.70;46.60;;;;;;4959502;28;20110;-45
2021/01/22 05:57:19;;;;;;;0.88;0.60;;;20.60;46.50;;;;;;4958358;28;20109;-45
2021/01/22 05:59:45;;;;;;;1.05;0.50;;;20.70;46.50;;;;;;4958131;28;20069;-46
2021/01/22 06:02:31;;;;;;;0.43;0.35;;;20.60;46.40;;;;;;4957378;28;20063;-45
2021/01/22 06:05:14;;;;;;;0.65;0.30;;;20.70;46.50;;;;;;4957026;29;20115;-48
2021/01/22 06:07:44;;;;;;;0.45;0.30;;;20.70;46.50;;;;;;4956211;29;20054;-46
2021/01/22 06:10:17;;;;;;;2.17;0.90;;;20.60;46.40;;;;;;4957193;28;20031;-45
2021/01/22 06:12:50;;;;;;;0.40;0.30;;;20.60;46.40;;;;;;4958346;28;20069;-47
2021/01/22 06:15:18;;;;;;;0.90;0.30;;;20.70;46.40;;;;;;4957232;28;20854;-48
2021/01/22 06:17:52;;;;;;;1.80;0.50;;;20.60;46.30;;;;;;4957555;28;20034;-47
2021/01/22 06:20:23;;;;;;;0.68;0.30;;;20.60;46.30;;;;;;4956141;29;20050;-49
2021/01/22 06:23:11;;;;;;;1.33;0.32;;;20.70;46.40;;;;;;4957876;28;20043;-46
2021/01/22 06:25:38;;;;;;;0.95;0.40;;;20.60;46.30;;;;;;4956113;29;20043;-45
2021/01/22 06:28:10;;;;;;;0.80;0.45;;;20.60;46.30;;;;;;4956751;28;20143;-45
2021/01/22 06:30:36;;;;;;;;;;;20.60;46.30;;;;;;4958357;29;20035;-46
2021/01/22 06:33:05;;;;;;;1.00;0.43;;;20.70;46.30;;;;;;4957068;28;19934;-47
2021/01/22 06:35:32;;;;;;;0.70;0.40;;;20.70;46.20;;;;;;4956413;29;20050;-45
2021/01/22 06:37:59;;;;;;;0.50;0.40;;;20.60;46.10;;;;;;4955569;28;20067;-49
2021/01/22 06:40:25;;;;;;;1.23;0.40;;;20.60;46.20;;;;;;4956191;28;20027;-46
2021/01/22 06:42:52;;;;;;;0.80;0.45;;;20.70;46.20;;;;;;4954266;28;20062;-47
2021/01/22 06:45:19;;;;;;;0.63;0.40;;;20.60;46.10;;;;;;4954397;28;20034;-48
2021/01/22 06:48:08;;;;;;;1.40;0.40;;;20.60;46.10;;;;;;4954668;28;20036;-46
2021/01/22 06:50:35;;;;;;;0.77;0.30;;;20.60;46.10;;;;;;4954738;28;20028;-45
2021/01/22 06:53:21;;;;;;;1.00;0.38;;;20.70;46.00;;;;;;4953461;28;20106;-47
2021/01/22 06:55:52;;;;;;;0.88;0.30;;;20.60;46.00;;;;;;4954078;28;20043;-47
2021/01/22 06:58:29;;;;;;;0.50;0.40;;;20.70;46.00;;;;;;4951889;29;20031;-48
2021/01/22 07:00:59;;;;;;;1.25;0.32;;;20.70;46.00;;;;;;4953155;29;20046;-50
2021/01/22 07:03:37;;;;;;;1.40;0.40;;;20.70;46.00;;;;;;4954048;28;20043;-46
2021/01/22 07:06:21;;;;;;;0.70;0.30;;;20.70;46.00;;;;;;4952206;29;20451;-47
2021/01/22 07:08:49;;;;;;;0.25;0.25;;;20.60;45.80;;;;;;4953262;29;20059;-46
2021/01/22 07:11:15;;;;;;;0.95;0.43;;;20.60;45.80;;;;;;4953604;29;20608;-46
2021/01/22 07:13:47;;;;;;;0.60;0.40;;;20.70;45.90;;;;;;4954102;28;20465;-46
2021/01/22 07:16:16;;;;;;;;;;;20.60;45.80;;;;;;4953788;28;20035;-45
2021/01/22 07:18:45;;;;;;;0.70;0.40;;;20.70;45.90;;;;;;4953361;29;19957;-50
2021/01/22 07:21:24;;;;;;;0.90;0.30;;;20.70;45.90;;;;;;4951998;29;20039;-49
2021/01/22 07:23:52;;;;;;;1.55;0.60;;;20.70;45.80;;;;;;4952910;29;20448;-46
2021/01/22 07:26:18;;;;;;;0.93;0.40;;;20.70;45.80;;;;;;4952169;29;20043;-50
2021/01/22 07:28:52;;;;;;;0.82;0.40;;;20.70;45.80;;;;;;4953658;29;20046;-48
2021/01/22 07:31:51;;;;;;;1.48;0.30;;;20.70;45.80;;;;;;4950553;29;20122;-46
2021/01/22 07:34:44;;;;;;;0.60;0.38;;;20.70;45.80;;;;;;4946177;29;20047;-46
2021/01/22 07:37:23;;;;;;;0.75;0.40;;;20.70;45.70;;;;;;4950855;29;20376;-46
2021/01/22 07:39:51;;;;;;;0.60;0.32;;;20.70;45.70;;;;;;4951150;29;20089;-47
2021/01/22 07:42:19;;;;;;;1.55;0.30;;;20.70;45.70;;;;;;4949711;28;20042;-49
2021/01/22 07:44:48;;;;;;;1.02;0.47;;;20.70;45.60;;;;;;4953028;28;20110;-48
2021/01/22 07:47:31;;;;;;;0.57;0.30;;;20.70;45.60;;;;;;4951543;28;20093;-49
2021/01/22 07:50:05;;;;;;;1.10;0.30;;;20.70;45.60;;;;;;4951526;29;20039;-52
2021/01/22 07:52:35;;;;;;;2.15;0.68;;;20.70;45.60;;;;;;4951525;28;20043;-53
2021/01/22 07:55:02;;;;;;;0.70;0.40;;;20.70;45.60;;;;;;4948976;29;20027;-51
2021/01/22 07:57:28;;;;;;;0.68;0.30;;;20.70;45.60;;;;;;4952534;28;20054;-49
2021/01/22 07:59:57;;;;;;;0.90;0.43;;;20.70;45.60;;;;;;4952994;28;20469;-50
2021/01/22 08:02:24;;;;;;;1.73;0.47;;;20.70;45.50;;;;;;4954328;28;20027;-49
2021/01/22 08:05:01;;;;;;;0.60;0.40;;;20.70;45.50;;;;;;4952388;29;20034;-47
2021/01/22 08:07:40;;;;;;;0.52;0.40;;;20.70;45.50;;;;;;4954451;28;20031;-45
2021/01/22 08:10:11;;;;;;;1.73;0.40;;;20.70;45.50;;;;;;4953366;28;20453;-46
2021/01/22 08:12:38;;;;;;;2.00;0.40;;;20.70;45.50;;;;;;4945962;28;20035;-47
2021/01/22 08:15:20;;;;;;;1.48;0.30;;;20.70;45.50;;;;;;4952997;28;20540;-45
2021/01/22 08:17:47;;;;;;;0.95;0.40;;;20.70;46.10;;;;;;4953943;28;20362;-45
2021/01/22 08:20:14;;;;;;;0.65;0.38;;;20.70;45.40;;;;;;4953106;28;20122;-45
2021/01/22 08:22:41;;;;;;;1.10;0.40;;;20.70;45.40;;;;;;4953879;28;20035;-45
2021/01/22 08:25:07;;;;;;;0.80;0.52;;;20.70;45.40;;;;;;4952509;28;20115;-48
2021/01/22 08:27:32;;;;;;;0.32;0.20;;;20.70;45.40;;;;;;4946661;29;20023;-45
2021/01/22 08:30:00;;;;;;;0.90;0.47;;;20.70;45.30;;;;;;4951016;29;20074;-47
2021/01/22 08:32:27;;;;;;;1.88;0.32;;;20.70;45.40;;;;;;4953560;28;20035;-47
2021/01/22 08:34:52;;;;;;;1.00;0.45;;;20.70;45.30;;;;;;4953340;28;20031;-51
2021/01/22 08:37:20;;;;;;;1.00;0.50;;;20.70;45.30;;;;;;4952096;28;20046;-47
2021/01/22 08:39:47;;;;;;;2.20;0.40;;;20.70;45.30;;;;;;4953272;28;20035;-48
2021/01/22 08:42:13;;;;;;;0.90;0.30;;;20.70;45.30;;;;;;4951706;28;20031;-45
2021/01/22 08:44:59;;;;;;;0.30;0.20;;;20.70;45.20;;;;;;4953154;28;20039;-46
2021/01/22 08:47:26;;;;;;;0.90;0.50;;;20.70;45.20;;;;;;4959308;28;20031;-45
2021/01/22 08:49:54;;;;;;;0.68;0.40;;;20.70;45.30;;;;;;4952561;28;20090;-50
2021/01/22 08:52:20;;;;;;;1.23;0.60;;;20.70;45.30;;;;;;4950807;29;20045;-46
2021/01/22 08:54:49;;;;;;;0.80;0.30;;;20.80;45.30;;;;;;4953228;28;20023;-48
2021/01/22 08:57:14;;;;;;;2.70;0.40;;;20.80;45.20;;;;;;4953678;28;20680;-51
2021/01/22 08:59:54;;;;;;;1.83;0.50;;;20.80;45.30;;;;;;4953640;28;20027;-62
2021/01/22 09:02:38;;;;;;;1.73;0.45;;;20.80;45.50;;;;;;4952275;28;20084;-61
2021/01/22 09:05:12;;;;;;;1.77;0.60;;;20.90;45.50;;;;;;4951549;29;20046;-62
2021/01/22 09:07:39;;;;;;;6.43;0.57;;;20.90;45.60;;;;;;4953255;28;20122;-63
2021/01/22 09:10:06;;;;;;;2.58;0.60;;;20.80;45.50;;;;;;4951888;28;20034;-62
2021/01/22 09:12:33;;;;;;;3.72;0.50;;;20.80;45.70;;;;;;4951579;29;20043;-63
2021/01/22 09:15:01;;;;;;;4.90;0.82;;;20.90;45.80;;;;;;4952895;28;20118;-59
2021/01/22 09:17:45;;;;;;;5.43;0.60;;;20.90;46.00;;;;;;4953211;29;20028;-63
2021/01/22 09:20:22;;;;;;;3.97;0.60;;;20.90;45.90;;;;;;4952025;28;20047;-62
2021/01/22 09:22:51;;;;;;;6.63;0.80;;;20.90;45.90;;;;;;4956786;28;20251;-64
2021/01/22 09:25:26;;;;;;;8.50;0.70;;;20.90;45.50;;;;;;4951911;28;20460;-63
2021/01/22 09:27:52;;;;;;;1.48;0.70;;;20.70;43.80;;;;;;4955144;28;20043;-64
2021/01/22 09:30:22;;;;;;;5.72;1.23;;;20.60;42.90;;;;;;4952018;28;20302;-70
2021/01/22 09:32:50;;;;;;;2.20;0.70;;;19.90;40.20;;;;;;4951628;28;20035;-58
2021/01/22 09:35:17;;;;;;;2.38;0.90;;;18.90;39.90;;;;;;4952575;28;20058;-62
2021/01/22 09:37:43;;;;;;;5.25;0.73;;;18.00;40.30;;;;;;4951319;28;20031;-59
2021/01/22 09:40:10;;;;;;;1.42;0.50;;;17.50;41.30;;;;;;4952223;29;20486;-61
2021/01/22 09:42:36;;;;;;;4.28;0.57;;;17.40;41.30;;;;;;4952363;28;20101;-62
2021/01/22 09:45:03;;;;;;;2.45;0.43;;;17.20;41.50;;;;;;4951485;28;20552;-65
2021/01/22 09:47:29;;;;;;;3.28;0.60;;;16.70;42.20;;;;;;4952686;28;20367;-64
2021/01/22 09:49:55;;;;;;;4.18;1.00;;;16.80;42.40;;;;;;4952024;29;20035;-59
2021/01/22 09:52:20;;;;;;;4.20;0.80;;;16.80;42.40;;;;;;4952071;29;20063;-65
2021/01/22 09:54:47;;;;;;;2.42;0.50;;;16.90;42.10;;;;;;4952996;28;20362;-65
2021/01/22 09:57:13;;;;;;;3.88;0.70;;;16.90;42.30;;;;;;4944037;28;20046;-63
2021/01/22 09:59:39;;;;;;;2.33;0.60;;;17.20;42.00;;;;;;4953122;28;20039;-65
2021/01/22 10:02:04;;;;;;;3.60;0.60;;;17.40;41.40;;;;;;4946653;28;20182;-62
2021/01/22 10:04:30;;;;;;;1.48;0.60;;;17.50;41.30;;;;;;4950874;28;20031;-63
2021/01/22 10:06:56;;;;;;;3.08;0.60;;;17.70;40.80;;;;;;4952594;29;20362;-64
2021/01/22 10:09:22;;;;;;;3.15;0.90;;;18.10;40.70;;;;;;4951982;28;20095;-71
2021/01/22 10:11:48;;;;;;;2.88;0.52;;;18.50;41.00;;;;;;4951667;28;20474;-70
2021/01/22 10:14:13;;;;;;;4.30;0.82;;;18.70;39.90;;;;;;4950952;28;20042;-70
2021/01/22 10:16:39;;;;;;;1.88;0.40;;;18.80;39.80;;;;;;4955433;29;20027;-70
2021/01/22 10:19:05;;;;;;;4.00;0.60;;;18.90;39.70;;;;;;4954909;29;20032;-68
2021/01/22 10:21:31;;;;;;;5.13;0.60;;;19.00;39.60;;;;;;4955393;29;20054;-70
2021/01/22 10:23:57;;;;;;;2.40;0.65;;;19.00;39.40;;;;;;4955628;28;20445;-62
2021/01/22 10:26:23;;;;;;;4.35;0.70;;;19.00;39.50;;;;;;4955440;28;20039;-70
2021/01/22 10:28:50;;;;;;;5.75;0.82;;;19.10;39.50;;;;;;4955677;28;20506;-70
2021/01/22 10:31:16;;;;;;;2.65;0.55;;;19.10;39.50;;;;;;4950088;28;20093;-70
2021/01/22 10:33:43;;;;;;;0.93;0.55;;;19.10;39.50;;;;;;4955532;28;20512;-70
2021/01/22 10:36:09;;;;;;;3.47;0.65;;;19.20;39.50;;;;;;4954828;28;20059;-70
2021/01/22 10:38:35;;;;;;;1.35;0.50;;;19.20;39.40;;;;;;4954210;28;20035;-70
2021/01/22 10:41:01;;;;;;;0.95;0.47;;;19.20;39.30;;;;;;4954954;28;20381;-69
2021/01/22 10:43:28;;;;;;;2.45;0.57;;;19.30;39.40;;;;;;4954975;28;20082;-68
2021/01/22 10:45:54;;;;;;;1.77;0.60;;;19.30;39.50;;;;;;4955243;28;20027;-62
2021/01/22 10:48:20;;;;;;;2.80;0.50;;;19.30;39.40;;;;;;4954693;28;20480;-70
2021/01/22 10:50:46;;;;;;;2.47;0.43;;;19.40;39.40;;;;;;4959444;28;20499;-67
2021/01/22 10:53:12;;;;;;;2.22;0.55;;;19.30;39.30;;;;;;4946837;28;20031;-66
2021/01/22 10:55:38;;;;;;;3.22;0.75;;;19.40;39.40;;;;;;4955474;28;20064;-65
2021/01/22 10:58:04;;;;;;;1.60;0.50;;;19.40;39.50;;;;;;4954305;28;20062;-66
2021/01/22 11:00:30;;;;;;;5.57;0.80;;;19.40;39.50;;;;;;4954852;29;20453;-69
2021/01/22 11:02:56;;;;;;;1.00;0.47;;;19.40;39.40;;;;;;4954564;28;20043;-63
2021/01/22 11:05:22;;;;;;;2.33;0.63;;;19.40;39.40;;;;;;4946688;29;20444;-67
2021/01/22 11:07:48;;;;;;;1.83;1.00;;;19.50;39.40;;;;;;4955702;29;20118;-66
2021/01/22 11:10:14;;;;;;;4.57;0.77;;;19.50;39.40;;;;;;4954413;28;20050;-68
2021/01/22 11:12:40;;;;;;;1.00;0.50;;;19.50;39.40;;;;;;4948908;28;20370;-68
2021/01/22 11:15:06;;;;;;;1.40;0.50;;;19.50;39.40;;;;;;4953081;29;20063;-64
2021/01/22 11:17:31;;;;;;;1.58;0.80;;;19.60;39.50;;;;;;4954609;28;20023;-59
2021/01/22 11:19:57;;;;;;;3.20;0.70;;;19.60;39.50;;;;;;4954821;29;20704;-60
2021/01/22 11:22:23;;;;;;;2.22;0.70;;;19.60;39.50;;;;;;4954270;28;20039;-72
2021/01/22 11:24:48;;;;;;;3.03;0.57;;;19.60;39.40;;;;;;4954995;29;20042;-60
2021/01/22 11:27:15;;;;;;;1.67;0.60;;;19.60;40.00;;;;;;4983967;28;20059;-65
2021/01/22 11:29:40;;;;;;;2.05;0.60;;;19.60;39.40;;;;;;4946499;28;20378;-65
2021/01/22 11:32:06;;;;;;;2.42;0.47;;;19.60;39.50;;;;;;4959735;28;20038;-66
2021/01/22 11:34:35;;;;;;;2.15;0.60;;;19.60;39.40;;;;;;4953954;29;20039;-71
2021/01/22 11:37:00;;;;;;;2.92;0.50;;;19.60;39.30;;;;;;4954144;28;20035;-60
2021/01/22 11:39:26;;;;;;;1.70;0.47;;;19.60;39.40;;;;;;4954562;28;20531;-69
2021/01/22 11:41:53;;;;;;;2.05;0.60;;;19.60;39.40;;;;;;4954494;28;20035;-66
2021/01/22 11:44:19;;;;;;;1.23;0.50;;;19.60;39.30;;;;;;4953710;28;20118;-68
2021/01/22 11:46:45;;;;;;;1.23;0.50;;;19.70;39.30;;;;;;4954436;28;20166;-67
2021/01/22 11:49:11;;;;;;;4.15;0.70;;;19.70;39.20;;;;;;4953886;28;20492;-68
2021/01/22 11:51:36;;;;;;;1.13;0.43;;;19.70;39.20;;;;;;4949161;28;20043;-67
2021/01/22 11:54:04;;;;;;;2.10;0.55;;;19.70;39.20;;;;;;4953791;29;20067;-64
2021/01/22 11:56:30;;;;;;;3.40;0.50;;;19.80;39.20;;;;;;4953850;28;20511;-68
2021/01/22 11:58:56;;;;;;;1.35;0.60;;;19.70;39.10;;;;;;4954092;28;20063;-69
2021/01/22 12:01:22;;;;;;;3.53;0.55;;;19.70;39.00;;;;;;4957927;28;20113;-64
2021/01/22 12:03:47;;;;;;;2.05;0.50;;;19.70;39.10;;;;;;4955366;28;20193;-67
2021/01/22 12:06:13;;;;;;;1.88;0.47;;;19.70;39.10;;;;;;4983568;28;20030;-68
2021/01/22 12:08:39;;;;;;;1.00;0.30;;;19.70;39.10;;;;;;4953706;29;20023;-67
2021/01/22 12:11:04;;;;;;;2.70;0.60;;;19.70;39.10;;;;;;4945142;29;20036;-66
2021/01/22 12:13:30;;;;;;;1.05;0.40;;;19.80;39.40;;;;;;4953581;28;20158;-67
2021/01/22 12:15:56;;;;;;;1.85;0.40;;;20.00;39.60;;;;;;4953364;29;20023;-67
2021/01/22 12:18:21;;;;;;;9.82;0.80;;;20.00;39.70;;;;;;4952813;29;20114;-65
2021/01/22 12:20:47;;;;;;;7.32;0.90;;;20.10;39.80;;;;;;4953977;28;20166;-66
2021/01/22 12:23:13;;;;;;;11.13;1.40;;;20.20;40.10;;;;;;4945866;28;20031;-65
2021/01/22 12:25:45;;;;;;;9.32;0.90;;;20.30;40.20;;;;;;4952484;29;20047;-62
2021/01/22 12:28:11;;;;;;;13.77;1.38;;;20.30;40.50;;;;;;4952947;28;20383;-59
2021/01/22 12:30:37;;;;;;;10.57;1.98;;;20.40;40.80;;;;;;4945702;28;20038;-64
2021/01/22 12:33:03;;;;;;;22.88;1.67;;;20.50;41.70;;;;;;4959499;28;20043;-51
2021/01/22 12:35:28;;;;;;;12.57;1.95;;;20.60;41.80;;;;;;4951937;29;20059;-56
2021/01/22 12:37:54;;;;;;;9.45;1.10;;;20.60;41.90;;;;;;4953042;28;20065;-46
2021/01/22 12:40:20;;;;;;;6.60;1.45;;;20.60;41.80;;;;;;4952252;29;20110;-47
2021/01/22 12:42:46;;;;;;;17.00;1.42;;;20.60;42.00;;;;;;4952745;29;20027;-46
2021/01/22 12:45:12;;;;;;;10.05;1.33;;;20.70;42.20;;;;;;4952680;28;20039;-45
2021/01/22 12:47:38;;;;;;;9.40;1.05;;;20.70;42.10;;;;;;4953278;29;20027;-47
2021/01/22 12:50:04;;;;;;;8.82;1.52;;;20.70;42.00;;;;;;4957451;28;20050;-52
2021/01/22 12:52:29;;;;;;;10.25;1.60;;;20.70;42.50;;;;;;4952439;28;20061;-48